Terminal Aerodrome Forecast
Issued by NWS

Home | Current Version | Previous Version | Graphics & Text | Print | Product List | Glossary On
Versions: 1 2 3 4 5 6 7 8 9 10 11 12 13 14 15 16 17 18 19 20 21 22 23 24 25 26 27 28 29
010
FTUS43 KLOT 312138 AAD
TAFMDW
TAF AMD
KMDW 312138Z 3122/0118 36009KT P6SM -TSRA SCT060CB BKN120
      TEMPO 3122/3123 34010KT 3SM TSRA BKN040CB BKN080
     FM312300 02007KT P6SM VCSH SCT040 BKN080
     FM010200 10006KT P6SM SCT050 BKN080
     FM010900 14007KT P6SM SCT050 BKN100 PROB30 0109/0114 4SM TSRA
      SCT040CB BKN080
     FM011400 17008KT P6SM VCTS SCT040CB BKN080
      TEMPO 0114/0118 4SM TSRA BKN040CB=

USA.gov is the U.S. government's official web portal to all federal, state and local government web resources and services.